Time;durP1;ratioP1;P1;durP2;ratioP2;P2;SDS_P1;SDS_P2;PMS_P1;PMS_P2;Temp;Humidity;BMP_temperature;BMP_pressure;BME280_temperature;BME280_humidity;BME280_pressure;Samples;Min_cycle;Max_cycle;Signal;HPM_P1;HPM_P2
2023/07/01 00:00:58;;;;;;;13.30;8.27;;;;;;;15.77;100.00;97567.44;5072045;28;20109;-40
2023/07/01 00:03:29;;;;;;;12.90;8.50;;;;;;;15.86;100.00;97572.66;5072342;28;20056;-41
2023/07/01 00:06:00;;;;;;;10.52;7.72;;;;;;;15.91;100.00;97580.94;5070561;28;20397;-40
2023/07/01 00:08:26;;;;;;;10.98;7.68;;;;;;;15.95;100.00;97569.25;5053056;28;20078;-41
2023/07/01 00:10:54;;;;;;;9.95;7.07;;;;;;;16.01;100.00;97568.69;5070639;28;20036;-40
2023/07/01 00:13:20;;;;;;;10.07;7.13;;;;;;;16.05;100.00;97574.47;5053278;28;20131;-41
2023/07/01 00:15:46;;;;;;;12.73;7.85;;;;;;;16.10;100.00;97575.72;5035798;28;20033;-39
2023/07/01 00:18:11;;;;;;;10.90;7.43;;;;;;;15.90;100.00;97532.16;5040086;28;20052;-40
2023/07/01 00:20:37;;;;;;;9.63;7.18;;;;;;;16.23;100.00;97571.97;5070838;28;20051;-39
2023/07/01 00:23:04;;;;;;;10.80;7.50;;;;;;;16.23;100.00;97575.41;5071644;28;20052;-39
2023/07/01 00:25:30;;;;;;;9.18;6.95;;;;;;;16.18;100.00;97572.41;5052741;28;20064;-39
2023/07/01 00:27:56;;;;;;;9.95;7.07;;;;;;;16.16;100.00;97570.91;5032305;28;20546;-40
2023/07/01 00:30:21;;;;;;;13.23;7.78;;;;;;;15.89;100.00;97530.50;5048059;28;20139;-41
2023/07/01 00:32:47;;;;;;;9.00;6.43;;;;;;;16.18;100.00;97577.63;5057414;28;20048;-39
2023/07/01 00:35:13;;;;;;;9.05;6.55;;;;;;;16.23;100.00;97572.81;5071626;28;20041;-40
2023/07/01 00:37:39;;;;;;;8.30;6.57;;;;;;;16.22;100.00;97575.59;5070832;28;20048;-40
2023/07/01 00:40:05;;;;;;;9.85;6.55;;;;;;;16.28;100.00;97569.75;5052169;28;20055;-40
2023/07/01 00:42:31;;;;;;;9.25;6.72;;;;;;;16.35;100.00;97571.69;5071392;28;20040;-39
2023/07/01 00:44:57;;;;;;;8.63;6.72;;;;;;;16.37;100.00;97568.94;5050971;28;20074;-40
2023/07/01 00:47:23;;;;;;;12.50;6.60;;;;;;;16.41;100.00;97572.94;5042994;28;20098;-39
2023/07/01 00:49:51;;;;;;;7.38;6.43;;;;;;;16.47;100.00;97567.13;5017051;28;20281;-40
2023/07/01 00:52:17;;;;;;;10.60;7.20;;;;;;;16.50;100.00;97569.47;5069123;28;20079;-40
2023/07/01 00:54:43;;;;;;;11.93;6.70;;;;;;;16.28;100.00;97536.50;5069929;28;20072;-39
2023/07/01 00:57:09;;;;;;;9.10;6.43;;;;;;;16.47;100.00;97557.47;5048401;28;20045;-39
2023/07/01 00:59:35;;;;;;;11.00;6.13;;;;;;;16.50;100.00;97548.47;5069475;28;20052;-41
2023/07/01 01:02:05;;;;;;;9.07;6.15;;;;;;;16.54;100.00;97565.56;5069821;28;20067;-42
2023/07/01 01:04:47;;;;;;;11.85;5.93;;;;;;;16.52;100.00;97557.88;5035347;28;20040;-40
2023/07/01 01:07:27;;;;;;;8.35;6.55;;;;;;;16.60;100.00;97556.34;5051986;28;20047;-40
2023/07/01 01:09:57;;;;;;;7.90;6.25;;;;;;;16.64;100.00;97557.75;5068792;28;20571;-40
2023/07/01 01:12:24;;;;;;;8.88;6.43;;;;;;;16.68;100.00;97564.34;5015354;28;20428;-40
2023/07/01 01:14:51;;;;;;;9.05;6.28;;;;;;;16.72;100.00;97569.16;5046617;28;20048;-40
2023/07/01 01:17:19;;;;;;;7.60;6.43;;;;;;;16.74;100.00;97562.00;5041893;28;20063;-41
2023/07/01 01:20:12;;;;;;;9.97;6.17;;;;;;;16.79;100.00;97570.25;5045969;28;20041;-40
2023/07/01 01:22:55;;;;;;;11.32;7.18;;;;;;;16.81;100.00;97572.72;5055854;28;20299;-38
2023/07/01 01:25:29;;;;;;;8.50;6.13;;;;;;;16.79;100.00;97567.63;5070579;28;20466;-39
2023/07/01 01:27:56;;;;;;;8.05;6.00;;;;;;;16.84;100.00;97564.56;5067488;28;20060;-42
2023/07/01 01:30:24;;;;;;;8.55;6.05;;;;;;;16.86;100.00;97560.81;5086492;28;20055;-41
2023/07/01 01:32:50;;;;;;;9.00;6.67;;;;;;;16.85;100.00;97564.41;5086883;28;20052;-40
2023/07/01 01:35:16;;;;;;;8.98;6.40;;;;;;;16.84;100.00;97565.41;5087375;28;20286;-39
2023/07/01 01:37:49;;;;;;;9.32;7.47;;;;;;;16.85;100.00;97558.38;5086410;28;20042;-40
2023/07/01 01:41:08;;;;;;;9.93;7.20;;;;;;;16.86;100.00;97566.06;5087596;28;20047;-42
2023/07/01 01:43:48;;;;;;;7.72;6.07;;;;;;;16.87;100.00;97572.16;5048293;28;21129;-40
2023/07/01 01:46:17;;;;;;;12.25;6.55;;;;;;;16.90;100.00;97561.38;5054958;28;20098;-40
2023/07/01 01:48:43;;;;;;;13.63;6.68;;;;;;;16.95;100.00;97564.41;5070937;28;20044;-40
2023/07/01 01:51:09;;;;;;;9.02;6.90;;;;;;;16.99;100.00;97555.25;5083974;28;20536;-43
2023/07/01 01:53:38;;;;;;;8.48;6.18;;;;;;;17.04;100.00;97555.66;5051899;28;20060;-40
2023/07/01 01:56:04;;;;;;;11.77;6.07;;;;;;;17.09;100.00;97555.22;5083993;28;20035;-40
2023/07/01 01:58:30;;;;;;;11.65;6.18;;;;;;;17.11;100.00;97554.13;5084640;28;20078;-40
2023/07/01 02:00:56;;;;;;;7.75;6.38;;;;;;;17.13;100.00;97553.94;5049711;28;20040;-40
2023/07/01 02:03:24;;;;;;;8.10;6.32;;;;;;;17.01;100.00;97527.03;5069801;28;20043;-40
2023/07/01 02:05:50;;;;;;;7.45;6.65;;;;;;;17.05;100.00;97527.59;5072486;28;20051;-41
2023/07/01 02:08:16;;;;;;;8.65;6.97;;;;;;;17.15;100.00;97550.22;5051985;28;20039;-40
2023/07/01 02:10:42;;;;;;;9.77;6.25;;;;;;;17.22;100.00;97545.19;5080352;28;20036;-40
2023/07/01 02:13:08;;;;;;;9.55;6.20;;;;;;;17.22;100.00;97537.31;5071669;28;20042;-40
2023/07/01 02:15:33;;;;;;;7.97;6.65;;;;;;;17.32;100.00;97549.41;5068475;28;20052;-40
2023/07/01 02:17:59;;;;;;;8.15;6.22;;;;;;;17.35;100.00;97551.75;5071554;28;20035;-40
2023/07/01 02:20:25;;;;;;;7.97;6.35;;;;;;;17.34;100.00;97559.78;5088769;28;20101;-41
2023/07/01 02:22:51;;;;;;;8.35;7.40;;;;;;;17.35;100.00;97553.56;5075229;28;20041;-41
2023/07/01 02:25:17;;;;;;;8.90;6.75;;;;;;;17.37;100.00;97567.38;5042418;28;20428;-41
2023/07/01 02:27:43;;;;;;;11.95;6.95;;;;;;;17.29;100.00;97541.84;5014886;28;20075;-40
2023/07/01 02:30:10;;;;;;;7.38;6.10;;;;;;;17.43;100.00;97568.59;5031599;28;20440;-39
2023/07/01 02:32:36;;;;;;;7.55;6.13;;;;;;;17.41;100.00;97573.16;5031682;28;20036;-40
2023/07/01 02:35:01;;;;;;;7.93;6.63;;;;;;;17.29;100.00;97547.09;5049016;28;20045;-40
2023/07/01 02:37:27;;;;;;;7.13;5.97;;;;;;;17.45;100.00;97562.22;5041475;28;20040;-40
2023/07/01 02:39:53;;;;;;;8.13;6.60;;;;;;;17.50;100.00;97567.03;5033675;28;20039;-40
2023/07/01 02:42:19;;;;;;;9.07;7.03;;;;;;;17.52;100.00;97571.16;5050663;28;20044;-41
2023/07/01 02:44:47;;;;;;;9.50;6.82;;;;;;;17.60;100.00;97567.81;5049600;28;20036;-39
2023/07/01 02:47:18;;;;;;;8.43;6.85;;;;;;;17.63;100.00;97568.38;5050157;28;20052;-40
2023/07/01 02:49:44;;;;;;;8.23;6.25;;;;;;;17.64;100.00;97570.00;5031057;28;20151;-40
2023/07/01 02:52:11;;;;;;;9.18;6.30;;;;;;;17.66;100.00;97577.75;5050245;28;20044;-41
2023/07/01 02:54:39;;;;;;;10.68;6.45;;;;;;;17.49;100.00;97539.91;5034680;28;20409;-41
2023/07/01 02:57:08;;;;;;;8.35;6.50;;;;;;;17.85;100.00;97571.53;5048614;28;20090;-40
2023/07/01 02:59:36;;;;;;;8.95;6.95;;;;;;;17.91;100.00;97577.00;5040815;28;20124;-40
2023/07/01 03:02:05;;;;;;;7.90;6.13;;;;;;;17.95;100.00;97574.91;5066518;28;20530;-40
2023/07/01 03:04:31;;;;;;;;;;;;;;;17.93;100.00;97579.50;5049862;28;20133;-40
2023/07/01 03:06:57;;;;;;;14.35;6.97;;;;;;;17.89;100.00;97567.63;5050893;28;19917;-40
2023/07/01 03:09:23;;;;;;;10.63;6.55;;;;;;;17.96;100.00;97576.56;5050539;28;20562;-40
2023/07/01 03:11:49;;;;;;;10.98;6.30;;;;;;;17.82;100.00;97542.91;5034517;28;20037;-40
2023/07/01 03:14:15;;;;;;;8.40;6.40;;;;;;;18.03;100.00;97570.56;5038567;28;20123;-39
2023/07/01 03:16:41;;;;;;;11.32;7.32;;;;;;;18.02;100.00;97566.25;5064429;28;20551;-40
2023/07/01 03:19:08;;;;;;;11.38;7.30;;;;;;;18.11;99.61;97573.25;5068674;28;20039;-40
2023/07/01 03:21:35;;;;;;;9.10;6.47;;;;;;;18.11;99.24;97567.16;5033626;28;20508;-39
2023/07/01 03:24:01;;;;;;;8.32;6.70;;;;;;;18.05;99.00;97558.09;5031923;28;20544;-39
2023/07/01 03:26:27;;;;;;;8.32;5.78;;;;;;;17.99;98.77;97556.06;5047156;28;20037;-40
2023/07/01 03:28:53;;;;;;;8.60;6.97;;;;;;;18.05;98.77;97558.09;5016341;28;20083;-39
2023/07/01 03:31:22;;;;;;;9.20;6.50;;;;;;;18.12;98.40;97556.50;5029645;28;20122;-40
2023/07/01 03:33:48;;;;;;;9.30;6.57;;;;;;;18.26;98.09;97563.03;5054182;28;20039;-39
2023/07/01 03:36:15;;;;;;;9.18;7.15;;;;;;;18.36;97.46;97563.78;5049196;28;20041;-40
2023/07/01 03:38:41;;;;;;;9.10;6.97;;;;;;;18.43;96.92;97562.16;5048901;28;20040;-39
2023/07/01 03:41:07;;;;;;;8.90;6.95;;;;;;;18.38;96.41;97561.78;5048596;28;20040;-40
2023/07/01 03:43:33;;;;;;;8.48;6.72;;;;;;;18.40;96.22;97565.09;5068153;28;20032;-40
2023/07/01 03:45:59;;;;;;;10.07;8.07;;;;;;;18.31;95.80;97539.72;5049773;28;20531;-40
2023/07/01 03:48:25;;;;;;;9.27;7.63;;;;;;;18.46;95.23;97559.22;5068205;28;20131;-40
2023/07/01 03:50:51;;;;;;;9.10;7.32;;;;;;;18.44;94.37;97536.69;5048735;28;20132;-40
2023/07/01 03:53:17;;;;;;;8.82;6.57;;;;;;;18.56;94.21;97567.88;5062689;28;20040;-40
2023/07/01 03:55:43;;;;;;;9.23;7.28;;;;;;;18.31;94.35;97544.16;5050232;28;20044;-41
2023/07/01 03:58:09;;;;;;;9.07;7.50;;;;;;;18.37;94.40;97562.75;5060623;28;20037;-41
2023/07/01 04:00:34;;;;;;;8.38;7.00;;;;;;;18.25;93.88;97560.53;5047885;28;20037;-40
2023/07/01 04:03:05;;;;;;;10.27;7.40;;;;;;;18.14;93.44;97530.88;5035270;28;20123;-39
2023/07/01 04:05:34;;;;;;;9.38;6.88;;;;;;;18.19;93.33;97544.41;5038675;28;20040;-40
2023/07/01 04:08:00;;;;;;;8.80;6.78;;;;;;;18.34;93.06;97563.09;5061570;28;20037;-39
2023/07/01 04:10:25;;;;;;;9.75;7.53;;;;;;;18.29;92.77;97554.81;5049998;28;20040;-40
2023/07/01 04:12:51;;;;;;;11.52;7.63;;;;;;;18.36;92.41;97555.03;5067188;28;20048;-40
2023/07/01 04:15:17;;;;;;;7.50;6.38;;;;;;;18.62;91.88;97566.44;5049799;28;20087;-40
2023/07/01 04:17:45;;;;;;;6.93;6.00;;;;;;;18.80;91.17;97575.09;5064364;28;20524;-41
2023/07/01 04:20:13;;;;;;;6.43;5.57;;;;;;;18.85;90.34;97577.25;5044048;28;20036;-40
2023/07/01 04:22:39;;;;;;;10.57;6.32;;;;;;;18.84;90.27;97576.44;5069297;28;20048;-39
2023/07/01 04:25:06;;;;;;;9.52;6.25;;;;;;;19.07;89.46;97581.16;5081646;28;20127;-40
2023/07/01 04:27:32;;;;;;;8.02;5.65;;;;;;;19.26;88.49;97581.75;5073371;28;20040;-42
2023/07/01 04:29:58;;;;;;;8.05;5.85;;;;;;;19.37;87.89;97578.00;5076239;28;20040;-40
2023/07/01 04:32:24;;;;;;;9.05;5.57;;;;;;;19.52;87.07;97580.91;5077026;28;20425;-40
2023/07/01 04:34:50;;;;;;;7.03;5.35;;;;;;;19.58;86.06;97562.63;5069661;28;20074;-40
2023/07/01 04:37:16;;;;;;;5.97;5.28;;;;;;;19.81;85.71;97571.59;5085140;28;20032;-40
2023/07/01 04:39:42;;;;;;;7.45;5.20;;;;;;;19.83;84.33;97574.06;5088061;28;20040;-39
2023/07/01 04:42:08;;;;;;;8.82;5.15;;;;;;;19.89;83.95;97579.50;5088037;28;20036;-43
2023/07/01 04:44:33;;;;;;;5.90;5.00;;;;;;;19.88;83.49;97571.78;5089118;28;20040;-39
2023/07/01 04:46:59;;;;;;;5.97;5.38;;;;;;;19.91;83.21;97576.72;5089524;28;20036;-38
2023/07/01 04:49:26;;;;;;;7.57;6.07;;;;;;;19.87;83.31;97575.41;5087886;28;20048;-40
2023/07/01 04:51:52;;;;;;;6.43;5.22;;;;;;;19.85;83.40;97582.63;5053024;28;20136;-40
2023/07/01 04:54:18;;;;;;;6.38;5.40;;;;;;;19.89;83.10;97582.16;5072583;28;20043;-41
2023/07/01 04:56:44;;;;;;;8.73;5.90;;;;;;;20.07;82.58;97578.53;5087143;28;20035;-39
2023/07/01 04:59:10;;;;;;;10.10;6.50;;;;;;;20.25;81.85;97582.66;5073522;28;20044;-42
2023/07/01 05:01:36;;;;;;;5.78;4.72;;;;;;;20.34;81.18;97583.56;5070909;28;20456;-38
2023/07/01 05:04:02;;;;;;;6.38;5.20;;;;;;;20.36;80.31;97581.56;5032707;28;20494;-42
2023/07/01 05:06:28;;;;;;;6.00;5.32;;;;;;;20.28;79.82;97582.34;5053123;28;20032;-40
2023/07/01 05:08:53;;;;;;;6.20;5.22;;;;;;;20.35;79.06;97592.28;5069330;28;20044;-42
2023/07/01 05:11:19;;;;;;;6.53;4.90;;;;;;;20.22;77.66;97571.63;5071268;28;20659;-40
2023/07/01 05:13:46;;;;;;;7.03;5.50;;;;;;;20.36;77.87;97586.03;5084098;28;20039;-41
2023/07/01 05:16:11;;;;;;;10.50;5.28;;;;;;;20.47;77.66;97583.03;5089682;28;20042;-39
2023/07/01 05:18:37;;;;;;;7.65;5.80;;;;;;;20.54;77.22;97582.22;5089163;28;20525;-41
2023/07/01 05:21:03;;;;;;;8.93;6.50;;;;;;;20.64;76.98;97587.31;5072122;28;20093;-38
2023/07/01 05:23:29;;;;;;;7.35;4.88;;;;;;;20.83;76.17;97592.22;5070893;28;20100;-41
2023/07/01 05:25:55;;;;;;;7.28;6.25;;;;;;;20.81;75.53;97561.72;5069988;28;20133;-40
2023/07/01 05:28:21;;;;;;;5.32;4.57;;;;;;;21.14;74.53;97584.44;5069255;28;20509;-41
2023/07/01 05:30:47;;;;;;;6.45;5.13;;;;;;;21.12;74.00;97589.88;5068888;28;20127;-39
2023/07/01 05:33:14;;;;;;;6.95;5.32;;;;;;;21.12;73.82;97595.16;5050645;28;20086;-38
2023/07/01 05:35:40;;;;;;;5.88;5.10;;;;;;;21.17;73.66;97592.03;5068960;28;20108;-39
2023/07/01 05:38:07;;;;;;;4.82;4.32;;;;;;;21.13;73.18;97598.63;5015311;28;20136;-39
2023/07/01 05:40:33;;;;;;;6.43;4.57;;;;;;;21.18;72.63;97583.09;5050428;28;20036;-38
2023/07/01 05:42:59;;;;;;;5.30;4.35;;;;;;;21.28;72.38;97585.56;5067548;28;20573;-40
2023/07/01 05:45:25;;;;;;;6.40;4.78;;;;;;;21.27;72.21;97583.91;5070077;28;20564;-40
2023/07/01 05:47:51;;;;;;;6.82;4.82;;;;;;;21.18;72.20;97561.97;5032092;28;20617;-40
2023/07/01 05:50:17;;;;;;;5.40;4.57;;;;;;;21.35;71.88;97599.75;5029205;28;20040;-40
2023/07/01 05:52:43;;;;;;;7.40;4.97;;;;;;;21.37;71.58;97595.09;5033213;28;20047;-40
2023/07/01 05:55:09;;;;;;;5.38;4.78;;;;;;;21.51;71.23;97592.53;5051303;28;20420;-41
2023/07/01 05:57:35;;;;;;;6.93;4.93;;;;;;;21.60;70.95;97603.09;5065742;28;20719;-40
2023/07/01 06:00:04;;;;;;;7.10;4.88;;;;;;;21.88;70.35;97606.91;5061182;28;20090;-41
2023/07/01 06:02:38;;;;;;;5.85;4.32;;;;;;;22.10;69.94;97607.94;5056607;28;20516;-40
2023/07/01 06:05:04;;;;;;;6.97;4.50;;;;;;;22.38;68.65;97604.63;5050105;28;20535;-40
2023/07/01 06:07:30;;;;;;;4.55;4.05;;;;;;;22.89;67.43;97604.84;5033347;28;20073;-41
2023/07/01 06:09:56;;;;;;;6.15;4.00;;;;;;;23.20;65.90;97604.69;5042404;28;20071;-40
2023/07/01 06:12:22;;;;;;;4.63;3.92;;;;;;;23.22;64.03;97605.34;5023605;28;20036;-40
2023/07/01 06:14:48;;;;;;;4.97;4.13;;;;;;;22.94;63.82;97609.59;5047434;28;20033;-41
2023/07/01 06:17:14;;;;;;;4.57;3.80;;;;;;;22.69;63.72;97614.28;5050534;28;20048;-40
2023/07/01 06:19:40;;;;;;;4.70;4.10;;;;;;;22.50;63.48;97614.78;5067820;28;20037;-40
2023/07/01 06:22:06;;;;;;;5.07;3.63;;;;;;;22.25;63.20;97604.38;5060748;28;20056;-41
2023/07/01 06:24:32;;;;;;;5.45;4.35;;;;;;;22.23;63.96;97616.97;5081564;28;20157;-41
2023/07/01 06:26:58;;;;;;;4.10;3.65;;;;;;;22.14;63.84;97615.38;5088104;28;20622;-40
2023/07/01 06:29:24;;;;;;;6.47;4.10;;;;;;;22.30;63.54;97609.97;5079960;28;20516;-40
2023/07/01 06:31:49;;;;;;;7.90;4.15;;;;;;;22.17;63.23;97579.78;5078321;28;20052;-41
2023/07/01 06:34:16;;;;;;;5.32;4.13;;;;;;;22.50;62.79;97589.13;5073401;28;20601;-39
2023/07/01 06:36:43;;;;;;;4.25;3.45;;;;;;;23.06;62.30;97613.47;5073780;28;20101;-41
2023/07/01 06:39:10;;;;;;;4.82;3.47;;;;;;;23.23;61.20;97585.78;5072665;28;20636;-41
2023/07/01 06:41:36;;;;;;;6.35;3.67;;;;;;;23.75;59.62;97590.13;5067872;28;20049;-40
2023/07/01 06:44:02;;;;;;;6.80;3.55;;;;;;;24.71;57.84;97601.09;5077855;28;20058;-40
2023/07/01 06:46:28;;;;;;;7.57;5.13;;;;;;;25.07;56.70;97603.63;5084557;28;20046;-40
2023/07/01 06:48:54;;;;;;;7.60;3.75;;;;;;;24.82;56.78;97605.06;5083994;28;20042;-40
2023/07/01 06:51:20;;;;;;;5.30;3.80;;;;;;;24.57;57.14;97606.50;5083233;28;20086;-39
2023/07/01 06:53:46;;;;;;;8.23;4.00;;;;;;;24.48;56.89;97603.16;5083038;28;20040;-41
2023/07/01 06:56:12;;;;;;;6.32;3.20;;;;;;;25.07;55.16;97605.50;5084736;28;20085;-41
2023/07/01 06:58:40;;;;;;;3.95;3.10;;;;;;;24.96;55.15;97608.69;5082827;28;20466;-41
2023/07/01 07:01:06;;;;;;;6.35;3.88;;;;;;;25.35;54.09;97613.41;5060186;28;20481;-42
2023/07/01 07:03:33;;;;;;;4.50;3.55;;;;;;;25.25;52.48;97608.47;5057465;28;20040;-41
2023/07/01 07:06:00;;;;;;;3.65;3.10;;;;;;;24.80;53.36;97596.47;5072757;28;20036;-42
2023/07/01 07:08:26;;;;;;;5.43;2.95;;;;;;;25.90;50.28;97586.69;5086446;28;20522;-43
2023/07/01 07:10:52;;;;;;;3.83;3.33;;;;;;;25.73;50.08;97610.16;5049856;28;20085;-41
2023/07/01 07:13:18;;;;;;;3.35;2.95;;;;;;;25.88;50.45;97596.69;5069706;28;20033;-49
2023/07/01 07:15:44;;;;;;;5.47;3.13;;;;;;;27.45;47.61;97612.97;5066049;28;20047;-44
2023/07/01 07:18:10;;;;;;;4.47;3.20;;;;;;;28.15;46.03;97609.44;5075081;28;20045;-43
2023/07/01 07:20:47;;;;;;;3.00;2.70;;;;;;;27.71;46.26;97602.22;5059337;28;20047;-48
2023/07/01 07:23:13;;;;;;;5.10;3.90;;;;;;;27.08;47.67;97601.97;5049630;28;20044;-44
2023/07/01 07:25:40;;;;;;;7.75;4.18;;;;;;;26.66;48.16;97608.53;5066954;28;20076;-47
2023/07/01 07:28:06;;;;;;;4.13;3.30;;;;;;;26.46;49.10;97599.72;5085266;28;20515;-46
2023/07/01 07:30:32;;;;;;;3.78;3.20;;;;;;;26.64;48.61;97607.13;5087612;28;20562;-45
2023/07/01 07:32:58;;;;;;;6.78;3.63;;;;;;;27.82;46.46;97596.22;5087646;28;20093;-42
2023/07/01 07:35:24;;;;;;;6.90;5.43;;;;;;;28.96;44.05;97599.59;5088143;28;20089;-45
2023/07/01 07:37:51;;;;;;;7.82;6.07;;;;;;;29.39;43.05;97607.63;5087304;28;20089;-48
2023/07/01 07:40:17;;;;;;;5.03;3.40;;;;;;;31.29;40.31;97607.81;5070088;28;20044;-44
2023/07/01 07:42:43;;;;;;;4.53;3.40;;;;;;;32.67;37.39;97594.13;5070373;28;20051;-44
2023/07/01 07:45:09;;;;;;;5.22;3.53;;;;;;;32.85;37.04;97604.66;5086636;28;20046;-44
2023/07/01 07:47:35;;;;;;;3.58;3.20;;;;;;;34.39;34.96;97607.22;5088369;28;20130;-48
2023/07/01 07:50:01;;;;;;;3.97;3.28;;;;;;;35.54;32.76;97603.00;5087352;28;20122;-48
2023/07/01 07:52:30;;;;;;;5.20;3.53;;;;;;;36.06;31.63;97605.66;5070756;28;20036;-46
2023/07/01 07:54:56;;;;;;;3.22;2.70;;;;;;;36.74;30.50;97622.59;5070371;28;20044;-46
2023/07/01 07:57:22;;;;;;;3.53;3.22;;;;;;;37.40;28.92;97596.22;5082278;28;20075;-45
2023/07/01 07:59:48;;;;;;;4.30;3.47;;;;;;;38.07;28.09;97608.47;5087744;28;20043;-43
2023/07/01 08:02:14;;;;;;;7.05;3.45;;;;;;;38.39;26.49;97610.72;5086623;28;20036;-43
2023/07/01 08:04:40;;;;;;;3.80;3.50;;;;;;;36.83;28.12;97608.22;5087040;28;20043;-45
2023/07/01 08:07:07;;;;;;;6.93;3.97;;;;;;;35.89;28.99;97592.34;5069191;28;20451;-43
2023/07/01 08:09:35;;;;;;;3.67;3.28;;;;;;;37.32;27.54;97607.63;5087974;28;20511;-44
2023/07/01 08:12:02;;;;;;;4.93;3.30;;;;;;;36.72;28.01;97578.69;5086680;28;20405;-46
2023/07/01 08:14:29;;;;;;;3.90;3.55;;;;;;;36.82;28.41;97612.00;5086188;28;20517;-47
2023/07/01 08:16:57;;;;;;;6.10;4.07;;;;;;;36.97;27.55;97619.31;5088915;28;20078;-44
2023/07/01 08:19:23;;;;;;;6.72;3.70;;;;;;;36.05;28.67;97609.44;5056573;28;20452;-45
2023/07/01 08:21:49;;;;;;;5.57;3.63;;;;;;;36.45;28.67;97609.53;5086607;28;20110;-46
2023/07/01 08:24:15;;;;;;;4.32;3.83;;;;;;;37.70;26.37;97606.19;5036794;28;20034;-44
2023/07/01 08:26:41;;;;;;;5.22;4.72;;;;;;;37.55;26.34;97606.22;5071441;28;20039;-47
2023/07/01 08:29:09;;;;;;;6.35;5.15;;;;;;;37.98;26.07;97618.25;5053487;28;20040;-47
2023/07/01 08:31:36;;;;;;;6.57;4.93;;;;;;;38.80;25.65;97598.47;5071491;28;20044;-45
2023/07/01 08:34:02;;;;;;;5.65;4.30;;;;;;;39.39;24.69;97617.25;5052213;28;20519;-46
2023/07/01 08:36:28;;;;;;;4.60;3.72;;;;;;;40.15;24.31;97616.31;5050243;28;20150;-42
2023/07/01 08:38:54;;;;;;;4.85;4.45;;;;;;;40.07;23.22;97586.22;5035870;28;20071;-44
2023/07/01 08:41:25;;;;;;;5.20;4.13;;;;;;;39.75;23.06;97593.16;5071314;28;20036;-46
2023/07/01 08:43:52;;;;;;;4.70;4.30;;;;;;;41.17;22.69;97625.69;5053471;28;20049;-45
2023/07/01 08:46:19;;;;;;;4.43;4.13;;;;;;;42.07;22.11;97628.59;5053360;28;20040;-47
2023/07/01 08:48:46;;;;;;;3.75;3.45;;;;;;;40.93;22.70;97618.41;5069925;28;20052;-43
2023/07/01 08:51:22;;;;;;;5.20;4.05;;;;;;;38.30;24.60;97612.41;5070312;28;20139;-45
2023/07/01 08:53:50;;;;;;;4.35;3.95;;;;;;;38.32;25.10;97619.16;5070726;28;20060;-46
2023/07/01 08:56:19;;;;;;;4.80;4.40;;;;;;;39.22;24.13;97622.28;5036252;28;20044;-45
2023/07/01 08:58:46;;;;;;;5.03;3.92;;;;;;;38.99;24.63;97623.06;5066488;28;20438;-47
2023/07/01 09:01:12;;;;;;;5.32;4.80;;;;;;;39.77;23.74;97620.94;5070326;28;20049;-44
2023/07/01 09:03:38;;;;;;;4.72;4.30;;;;;;;40.65;23.22;97616.72;5036535;28;20036;-43
2023/07/01 09:06:07;;;;;;;4.47;3.95;;;;;;;40.57;22.73;97618.16;5051926;28;20036;-45
2023/07/01 09:08:38;;;;;;;5.35;4.70;;;;;;;38.66;24.39;97611.09;5070788;28;20123;-44
2023/07/01 09:11:10;;;;;;;4.65;4.25;;;;;;;39.05;24.13;97607.53;5052751;28;20511;-46
2023/07/01 09:13:36;;;;;;;4.13;3.83;;;;;;;40.74;22.39;97612.22;5048011;28;20044;-44
2023/07/01 09:16:03;;;;;;;5.63;5.00;;;;;;;41.22;21.47;97603.78;5070694;28;20047;-47
2023/07/01 09:18:29;;;;;;;4.95;4.57;;;;;;;40.97;21.65;97611.28;5053062;28;20384;-47
2023/07/01 09:20:57;;;;;;;4.95;4.53;;;;;;;41.87;21.22;97612.63;5052079;28;20083;-44
2023/07/01 09:23:27;;;;;;;5.18;4.40;;;;;;;42.19;20.59;97608.91;5067151;28;20097;-46
2023/07/01 09:26:06;;;;;;;6.55;4.97;;;;;;;42.88;19.68;97614.97;5090718;28;20060;-43
2023/07/01 09:28:33;;;;;;;4.25;3.95;;;;;;;41.95;20.63;97616.56;5071823;28;20040;-43
2023/07/01 09:31:00;;;;;;;;;;;;;;;41.06;21.29;97616.88;5052727;28;20135;-45
2023/07/01 09:33:26;;;;;;;4.65;4.07;;;;;;;38.66;23.03;97602.94;5069068;28;19927;-43
2023/07/01 09:35:57;;;;;;;5.13;4.15;;;;;;;38.59;23.43;97591.59;5055916;28;20036;-44
2023/07/01 09:38:24;;;;;;;4.93;4.43;;;;;;;39.25;22.79;97593.72;5052328;28;20040;-44
2023/07/01 09:40:50;;;;;;;4.97;4.37;;;;;;;40.01;22.34;97598.28;5070394;28;20135;-42
2023/07/01 09:43:18;;;;;;;5.60;4.80;;;;;;;41.34;20.80;97615.81;5082161;28;20135;-44
2023/07/01 09:45:55;;;;;;;6.32;4.20;;;;;;;42.46;19.92;97608.03;5090396;28;20032;-50
2023/07/01 09:48:22;;;;;;;5.45;4.95;;;;;;;42.38;19.37;97606.88;5088984;28;20089;-47
2023/07/01 09:50:49;;;;;;;6.13;4.28;;;;;;;42.35;19.55;97614.84;5088630;28;20036;-43
2023/07/01 09:53:23;;;;;;;4.70;4.30;;;;;;;40.04;21.32;97581.38;5088275;28;20699;-45
2023/07/01 09:55:49;;;;;;;5.07;4.50;;;;;;;38.91;22.79;97599.22;5089012;28;20048;-45
2023/07/01 09:58:15;;;;;;;6.70;4.80;;;;;;;39.17;22.86;97603.31;5081508;28;20044;-45
2023/07/01 10:00:42;;;;;;;6.30;4.00;;;;;;;38.22;23.59;97607.56;5073179;28;20043;-48
2023/07/01 10:03:08;;;;;;;6.43;4.85;;;;;;;36.79;25.25;97596.31;5073076;28;20039;-44
2023/07/01 10:05:34;;;;;;;6.68;4.68;;;;;;;37.70;24.32;97573.63;5069067;28;20048;-45
2023/07/01 10:08:01;;;;;;;6.55;5.10;;;;;;;38.19;23.88;97603.53;5088618;28;20462;-46
2023/07/01 10:10:27;;;;;;;4.82;4.40;;;;;;;39.57;22.79;97596.63;5071931;28;20180;-45
2023/07/01 10:12:54;;;;;;;10.45;5.07;;;;;;;40.62;21.61;97596.31;5087865;28;20071;-48
2023/07/01 10:15:25;;;;;;;5.53;5.03;;;;;;;42.32;20.37;97608.09;5088465;28;20485;-45
2023/07/01 10:17:52;;;;;;;4.35;4.03;;;;;;;42.93;19.55;97599.25;5088365;28;20071;-45
2023/07/01 10:20:25;;;;;;;5.88;4.70;;;;;;;42.46;18.48;97597.13;5088420;28;20113;-45
2023/07/01 10:22:55;;;;;;;6.47;5.78;;;;;;;42.64;18.84;97605.16;5087657;28;20483;-46
2023/07/01 10:25:34;;;;;;;7.57;4.95;;;;;;;43.70;18.46;97611.72;5071422;28;20055;-45
2023/07/01 10:28:00;;;;;;;4.32;4.03;;;;;;;44.11;18.44;97608.59;5088486;28;20050;-43
2023/07/01 10:30:27;;;;;;;9.02;5.90;;;;;;;43.44;18.52;97601.47;5071300;28;20047;-43
2023/07/01 10:32:53;;;;;;;6.38;3.72;;;;;;;41.06;20.34;97577.91;5088935;28;20052;-44
2023/07/01 10:35:19;;;;;;;5.22;4.53;;;;;;;41.59;20.30;97602.81;5089586;28;20039;-45
2023/07/01 10:38:23;;;;;;;4.10;3.70;;;;;;;42.63;19.37;97614.47;5088885;28;20040;-48
2023/07/01 10:40:49;;;;;;;5.22;4.72;;;;;;;40.91;19.96;97576.22;5088512;28;20048;-43
2023/07/01 10:43:24;;;;;;;4.95;4.55;;;;;;;39.87;21.21;97592.78;5071079;28;20044;-44
2023/07/01 10:46:12;;;;;;;6.00;5.43;;;;;;;39.10;21.68;97604.78;5089090;28;20515;-44
2023/07/01 10:49:04;;;;;;;4.95;4.53;;;;;;;39.01;21.18;97599.13;5088905;28;20046;-46
2023/07/01 10:51:31;;;;;;;11.68;8.00;;;;;;;37.83;22.32;97592.03;5056609;28;20046;-45
2023/07/01 10:54:01;;;;;;;20.50;6.20;;;;;;;38.98;21.81;97588.84;5083671;28;20051;-47
2023/07/01 10:56:29;;;;;;;9.60;5.90;;;;;;;40.90;20.88;97599.13;5065176;28;20040;-49
2023/07/01 10:59:23;;;;;;;7.07;4.45;;;;;;;42.39;19.63;97602.22;5082581;28;20040;-51
2023/07/01 11:01:49;;;;;;;5.72;4.85;;;;;;;43.27;18.93;97604.13;5062076;28;20416;-44
2023/07/01 11:04:17;;;;;;;5.18;4.75;;;;;;;42.44;17.99;97599.38;5081311;28;20095;-47
2023/07/01 11:06:49;;;;;;;5.18;4.60;;;;;;;42.21;19.09;97591.09;5076785;28;20045;-47
2023/07/01 11:09:28;;;;;;;5.57;5.03;;;;;;;42.94;18.16;97597.31;5084195;28;20035;-48
2023/07/01 11:11:56;;;;;;;5.32;4.60;;;;;;;43.49;17.96;97590.41;5087358;28;20166;-45
2023/07/01 11:14:30;;;;;;;6.47;3.70;;;;;;;43.10;18.49;97579.41;5071402;28;20044;-45
2023/07/01 11:17:16;;;;;;;6.57;4.80;;;;;;;41.39;19.26;97584.91;5081479;28;20040;-44
2023/07/01 11:19:44;;;;;;;5.03;4.40;;;;;;;42.59;18.72;97596.25;5074536;28;20040;-48
2023/07/01 11:22:13;;;;;;;5.25;4.70;;;;;;;43.55;18.09;97590.25;5082166;28;20154;-46
2023/07/01 11:24:39;;;;;;;6.43;4.68;;;;;;;44.23;17.74;97576.69;5069120;28;20032;-45
2023/07/01 11:27:08;;;;;;;5.20;4.80;;;;;;;44.03;16.69;97590.19;5086153;28;20665;-48
2023/07/01 11:29:35;;;;;;;4.70;4.30;;;;;;;42.60;16.91;97589.69;5062386;28;20056;-46
2023/07/01 11:32:03;;;;;;;5.00;4.60;;;;;;;42.28;16.94;97585.25;5071640;28;20097;-43
2023/07/01 11:34:30;;;;;;;4.90;4.50;;;;;;;42.25;17.16;97592.09;5074455;28;20048;-50